Dades meteomassalio
Diari Summary for Agost 10, 2017 Units:  Metric    English   Both
« Previous Day
Next Day »
Diari Semanal Mensual Anual Personalitzat
  Maxima: Minima: Mijana:
Temperatura: -17.8 °C -10.5 °C -7.4 °C
Rosada: -17.8 °C -13.2 °C -12.5 °C
Humitat: Humidity % 39 % 56 %
Velocitat del vent: 0 km/h 9 km/h 45.9 km/h
Racha vent: 0 km/h - -
Vent:- - WNW
Pressio: 0 hPa 34554.1 hPa -
Pluja: 0 mm    
Historical Graphs
 
 
Tabular Data for Agost 10, 2017
Time Temperature Dew Point Pressure Wind Wind Speed Wind Gust Humidity Rainfall Rate (Hourly) solar Conditions
-17.8 °C -17.8 °C 0 hPa Calm     Humidity % 0 mm SolarRadiationWatts/m^2 W/m2 Conditions
00:04 -8.9 °C -12.3 °C 34591.4 hPa WNW 25.9 km/h 25.9 km/h 67 % 0 mm 0.0 W/m2 RA
00:09 -8.9 °C -12.4 °C 34591.4 hPa WNW 35.7 km/h 35.7 km/h 66 % 0 mm 0.0 W/m2 CLR
00:14 -8.9 °C -12.4 °C 34591.4 hPa WNW 29.8 km/h 29.8 km/h 66 % 0 mm 0.0 W/m2 CLR
00:19 -8.8 °C -12.7 °C 34591.4 hPa NW 35.7 km/h 35.7 km/h 64 % 0 mm 0.0 W/m2 CLR
00:24 -8.8 °C -12.6 °C 34591.4 hPa WNW 44.7 km/h 44.7 km/h 64 % 0 mm 0.0 W/m2 CLR
00:29 -8.8 °C -12.6 °C 34591.4 hPa West 29.8 km/h 29.8 km/h 64 % 12.7 mm 0.0 W/m2 CLR
00:34 -8.8 °C -12.9 °C 34601.5 hPa WNW 44.7 km/h 44.7 km/h 62 % 7.62 mm 0.0 W/m2 CLR
00:39 -8.8 °C -13 °C 34601.5 hPa NW 47.6 km/h 47.6 km/h 61 % 0 mm 0.0 W/m2 CLR
00:44 -8.8 °C -12.9 °C 34601.5 hPa WNW 29.8 km/h 29.8 km/h 62 % 0 mm 0.0 W/m2 CLR
00:49 -8.8 °C -12.9 °C 34601.5 hPa WNW 35.7 km/h 35.7 km/h 62 % 0 mm 0.0 W/m2 CLR
00:54 -8.8 °C -12.9 °C 34601.5 hPa NW 44.7 km/h 44.7 km/h 62 % 0 mm 0.0 W/m2 CLR
00:59 -8.9 °C -12.9 °C 34601.5 hPa WNW 38.8 km/h 38.8 km/h 62 % 0 mm 0.0 W/m2 CLR
01:04 -8.9 °C -12.9 °C 34601.5 hPa West 47.6 km/h 47.6 km/h 62 % 0 mm 0.0 W/m2 CLR
01:09 -8.9 °C -12.9 °C 34601.5 hPa NW 44.7 km/h 44.7 km/h 62 % 0 mm 0.0 W/m2 CLR
01:14 -8.9 °C -12.9 °C 34601.5 hPa WNW 35.7 km/h 35.7 km/h 62 % 0 mm 0.0 W/m2 CLR
01:19 -8.9 °C -13 °C 34601.5 hPa NW 44.1 km/h 44.1 km/h 62 % 0 mm 0.0 W/m2 CLR
01:24 -8.9 °C -13 °C 34601.5 hPa WNW 50.7 km/h 50.7 km/h 62 % 0 mm 0.0 W/m2 CLR
01:29 -9 °C -13 °C 34611.7 hPa NW 44.7 km/h 44.7 km/h 62 % 0 mm 0.0 W/m2 CLR
01:34 -9 °C -13 °C 34611.7 hPa WNW 29.8 km/h 29.8 km/h 62 % 0 mm 0.0 W/m2 CLR
01:39 -9 °C -12.9 °C 34611.7 hPa NW 32.8 km/h 32.8 km/h 63 % 0 mm 0.0 W/m2 CLR
01:44 -9 °C -13 °C 34611.7 hPa NW 38.8 km/h 38.8 km/h 62 % 0 mm 0.0 W/m2 CLR
01:49 -9 °C -12.9 °C 34611.7 hPa NNW 32.8 km/h 32.8 km/h 63 % 0 mm 0.0 W/m2 CLR
01:54 -9 °C -12.9 °C 34611.7 hPa WNW 32.8 km/h 32.8 km/h 63 % 0 mm 0.0 W/m2 CLR
01:59 -9 °C -12.9 °C 34611.7 hPa West 35.7 km/h 35.7 km/h 63 % 0 mm 0.0 W/m2 CLR
02:04 -9.1 °C -12.8 °C 34611.7 hPa WNW 41.7 km/h 41.7 km/h 64 % 0 mm 0.0 W/m2 CLR
02:09 -9.1 °C -12.7 °C 34625.2 hPa WNW 44.7 km/h 44.7 km/h 65 % 0 mm 0.0 W/m2 CLR
02:14 -9.1 °C -12.8 °C 34611.7 hPa WNW 38.8 km/h 38.8 km/h 65 % 0 mm 0.0 W/m2 CLR
02:19 -9.1 °C -12.8 °C 34611.7 hPa West 44.7 km/h 44.7 km/h 65 % 0 mm 0.0 W/m2 CLR
02:24 -9.2 °C -12.7 °C 34611.7 hPa WNW 35.7 km/h 35.7 km/h 66 % 0 mm 0.0 W/m2 CLR
02:26 -9.2 °C -12.7 °C 34611.7 hPa WNW 33.6 km/h 33.6 km/h 66 % 0 mm 0.0 W/m2 CLR
02:31 -9.3 °C -12.7 °C 34611.7 hPa NW 29.8 km/h 29.8 km/h 67 % 0 mm 0.0 W/m2 CLR
02:36 -9.3 °C -12.8 °C 34601.5 hPa NNW 35.7 km/h 35.7 km/h 66 % 0 mm 0.0 W/m2 CLR
02:41 -9.3 °C -12.8 °C 34601.5 hPa West 53.6 km/h 53.6 km/h 66 % 0 mm 0.0 W/m2 CLR
02:46 -9.3 °C -12.8 °C 34601.5 hPa WNW 59.5 km/h 59.5 km/h 66 % 0 mm 0.0 W/m2 CLR
02:51 -9.3 °C -12.8 °C 34601.5 hPa NW 59.5 km/h 59.5 km/h 66 % 0 mm 0.0 W/m2 CLR
02:56 -9.3 °C -12.8 °C 34601.5 hPa West 56.6 km/h 56.6 km/h 66 % 0 mm 0.0 W/m2 CLR
03:01 -9.4 °C -12.9 °C 34601.5 hPa West 57 km/h 57 km/h 66 % 0 mm 0.0 W/m2 CLR
03:06 -9.4 °C -12.9 °C 34601.5 hPa WNW 44.7 km/h 44.7 km/h 66 % 0 mm 0.0 W/m2 CLR
03:11 -9.4 °C -12.8 °C 34591.4 hPa NW 50.7 km/h 50.7 km/h 67 % 0 mm 0.0 W/m2 CLR
03:16 -9.4 °C -12.8 °C 34601.5 hPa NW 68.6 km/h 68.6 km/h 67 % 0 mm 0.0 W/m2 CLR
03:21 -9.5 °C -12.8 °C 34591.4 hPa WNW 41.7 km/h 41.7 km/h 67 % 0 mm 0.0 W/m2 CLR
03:26 -9.6 °C -12.8 °C 34591.4 hPa NW 56.6 km/h 56.6 km/h 68 % 0 mm 0.0 W/m2 CLR
03:31 -9.6 °C -12.8 °C 34601.5 hPa WNW 41.7 km/h 41.7 km/h 68 % 0 mm 0.0 W/m2 CLR
03:36 -9.6 °C -12.8 °C 34601.5 hPa WSW 26.9 km/h 26.9 km/h 68 % 0 mm 0.0 W/m2 CLR
03:41 -9.6 °C -12.8 °C 34591.4 hPa WNW 44.7 km/h 44.7 km/h 68 % 0 mm 0.0 W/m2 CLR
03:46 -9.7 °C -12.8 °C 34591.4 hPa WNW 38.8 km/h 38.8 km/h 69 % 0 mm 0.0 W/m2 CLR
03:51 -9.7 °C -12.8 °C 34591.4 hPa WNW 32.8 km/h 32.8 km/h 69 % 0 mm 0.0 W/m2 CLR
03:56 -9.8 °C -12.9 °C 34591.4 hPa WNW 44.1 km/h 44.1 km/h 69 % 0 mm 0.0 W/m2 CLR
04:01 -9.8 °C -12.8 °C 34591.4 hPa WNW 41.7 km/h 41.7 km/h 70 % 0 mm 0.0 W/m2 CLR
04:06 -9.8 °C -12.8 °C 34591.4 hPa NW 26.9 km/h 26.9 km/h 70 % 0 mm 0.0 W/m2 CLR
04:11 -9.9 °C -12.9 °C 34601.5 hPa WNW 26.9 km/h 26.9 km/h 70 % 0 mm 0.0 W/m2 CLR
04:16 -9.9 °C -12.9 °C 34601.5 hPa West 29.8 km/h 29.8 km/h 70 % 0 mm 0.0 W/m2 CLR
04:21 -9.9 °C -12.9 °C 34601.5 hPa WNW 32.8 km/h 32.8 km/h 70 % 0 mm 0.0 W/m2 CLR
04:26 -9.9 °C -12.9 °C 34601.5 hPa West 29.8 km/h 29.8 km/h 70 % 0 mm 0.0 W/m2 CLR
04:31 -9.9 °C -12.9 °C 34601.5 hPa WSW 23.8 km/h 23.8 km/h 70 % 0 mm 0.0 W/m2 CLR
04:36 -10 °C -13 °C 34601.5 hPa West 38.8 km/h 38.8 km/h 70 % 0 mm 0.0 W/m2 CLR
04:41 -10 °C -13 °C 34601.5 hPa WNW 33.6 km/h 33.6 km/h 70 % 0 mm 0.0 W/m2 CLR
04:46 -10.1 °C -13 °C 34601.5 hPa West 29.8 km/h 29.8 km/h 70 % 0 mm 0.0 W/m2 CLR
04:51 -10.1 °C -12.9 °C 34601.5 hPa WNW 33.6 km/h 33.6 km/h 71 % 0 mm 0.0 W/m2 CLR
04:56 -10.1 °C -12.9 °C 34601.5 hPa WNW 38.8 km/h 38.8 km/h 71 % 0 mm 0.0 W/m2 CLR
05:01 -10.1 °C -13 °C 34601.5 hPa WNW 29.8 km/h 29.8 km/h 71 % 0 mm 0.0 W/m2 CLR
05:06 -10.2 °C -12.9 °C 34591.4 hPa West 38.8 km/h 38.8 km/h 72 % 0 mm 0.0 W/m2 CLR
05:11 -10.2 °C -12.9 °C 34601.5 hPa WNW 31.1 km/h 31.1 km/h 72 % 0 mm 0.0 W/m2 CLR
05:16 -10.1 °C -13 °C 34601.5 hPa WNW 38.8 km/h 38.8 km/h 71 % 0 mm 0.0 W/m2 CLR
05:21 -10.1 °C -12.9 °C 34601.5 hPa West 32.8 km/h 32.8 km/h 71 % 0 mm 0.0 W/m2 CLR
05:23 -10.1 °C -13 °C 34591.4 hPa West 38.8 km/h 38.8 km/h 71 % 0 mm 0.0 W/m2 CLR
05:24 -10.1 °C -13 °C 34591.4 hPa WNW 32.8 km/h 32.8 km/h 71 % 0 mm 0.0 W/m2 CLR
05:26 -10.1 °C -13 °C 34591.4 hPa West 32.8 km/h 32.8 km/h 71 % 0 mm 0.0 W/m2 CLR
05:31 -10.2 °C -13 °C 34591.4 hPa NW 41.4 km/h 41.4 km/h 71 % 0 mm 0.0 W/m2 CLR
05:34 -10.2 °C -13.1 °C 34591.4 hPa WNW 33.6 km/h 33.6 km/h 71 % 0 mm 0.0 W/m2 CLR
05:36 -10.2 °C -13.1 °C 34591.4 hPa WSW 41.7 km/h 41.7 km/h 71 % 0 mm 0.0 W/m2 CLR
05:41 -10.2 °C -13.1 °C 34591.4 hPa West 36.2 km/h 36.2 km/h 71 % 0 mm 0.0 W/m2 CLR
05:46 -10.2 °C -13.1 °C 34591.4 hPa West 29.8 km/h 29.8 km/h 71 % 0 mm 0.0 W/m2 CLR
05:51 -10.2 °C -13.1 °C 34601.5 hPa WNW 33.6 km/h 33.6 km/h 71 % 0 mm 0.0 W/m2 CLR
05:56 -10.2 °C -13.1 °C 34591.4 hPa WNW 26.9 km/h 26.9 km/h 71 % 0 mm 0.0 W/m2 CLR
06:01 -10.2 °C -13.1 °C 34591.4 hPa WNW 41.7 km/h 41.7 km/h 71 % 0 mm 0.0 W/m2 CLR
06:06 -10.2 °C -13.1 °C 34601.5 hPa WNW 29.8 km/h 29.8 km/h 71 % 0 mm 0.0 W/m2 CLR
06:11 -10.2 °C -13.1 °C 34601.5 hPa WNW 41.7 km/h 41.7 km/h 71 % 0 mm 0.0 W/m2 CLR
06:16 -10.2 °C -13.1 °C 34601.5 hPa West 35.7 km/h 35.7 km/h 71 % 0 mm 0.0 W/m2 CLR
06:21 -10.2 °C -13.1 °C 34601.5 hPa West 50.7 km/h 50.7 km/h 71 % 0 mm 0.0 W/m2 CLR
06:26 -10.2 °C -13.1 °C 34601.5 hPa WNW 33.6 km/h 33.6 km/h 71 % 0 mm 0.0 W/m2 CLR
06:31 -10.2 °C -13.1 °C 34601.5 hPa WNW 35.7 km/h 35.7 km/h 71 % 0 mm 0.0 W/m2 CLR
06:36 -10.2 °C -13.1 °C 34611.7 hPa WNW 33.6 km/h 33.6 km/h 71 % 0 mm 0.0 W/m2 CLR
06:41 -10.2 °C -13.1 °C 34611.7 hPa West 38.8 km/h 38.8 km/h 71 % 0 mm 0.0 W/m2 CLR
06:46 -10.2 °C -13.1 °C 34611.7 hPa WNW 35.7 km/h 35.7 km/h 71 % 0 mm 0.0 W/m2 CLR
06:51 -10.3 °C -13.2 °C 34611.7 hPa WNW 36.2 km/h 36.2 km/h 71 % 0 mm 0.0 W/m2 CLR
06:56 -10.3 °C -13.2 °C 34611.7 hPa West 29.8 km/h 29.8 km/h 71 % 0 mm 0.0 W/m2 CLR
07:01 -10.2 °C -13.1 °C 34611.7 hPa WSW 26.9 km/h 26.9 km/h 71 % 0 mm 0.0 W/m2 OVC
07:02 -10.2 °C -13.1 °C 34611.7 hPa West 26.9 km/h 26.9 km/h 71 % 0 mm 0.0 W/m2 OVC
07:07 -10.3 °C -13.2 °C 34625.2 hPa SW 17.9 km/h 17.9 km/h 71 % 0 mm 0.0 W/m2 OVC
07:12 -10.3 °C -13.2 °C 34625.2 hPa West 20.9 km/h 20.9 km/h 71 % 0 mm 5.0 W/m2 OVC
07:17 -10.4 °C -13.2 °C 34625.2 hPa WSW 23.8 km/h 23.8 km/h 72 % 0 mm 7.0 W/m2 BKN
07:22 -10.4 °C -13.2 °C 34625.2 hPa West 17.9 km/h 17.9 km/h 72 % 0 mm 9.0 W/m2 BKN
07:27 -10.5 °C -13.2 °C 34625.2 hPa WSW 17.9 km/h 17.9 km/h 72 % 0 mm 11.0 W/m2 BKN
07:32 -10.5 °C -13.1 °C 34625.2 hPa WSW 23.3 km/h 23.3 km/h 73 % 0 mm 14.0 W/m2 BKN
07:37 -10.4 °C -13.2 °C 34625.2 hPa West 20.9 km/h 20.9 km/h 72 % 0 mm 18.0 W/m2 BKN
07:42 -10.4 °C -13 °C 34625.2 hPa WSW 26.9 km/h 26.9 km/h 73 % 0 mm 33.0 W/m2 BKN
07:47 -10.3 °C -13 °C 34635.4 hPa West 26.9 km/h 26.9 km/h 72 % 0 mm 42.0 W/m2 BKN
07:52 -10.2 °C -12.9 °C 34635.4 hPa WSW 15.6 km/h 15.6 km/h 72 % 0 mm 63.0 W/m2 SCT
07:57 -10.1 °C -12.9 °C 34635.4 hPa SW 9 km/h 9 km/h 71 % 0 mm 76.0 W/m2 FEW
08:02 -10 °C -12.9 °C 34635.4 hPa West 29.8 km/h 29.8 km/h 71 % 0 mm 88.0 W/m2 FEW
08:07 -9.9 °C -12.9 °C 34635.4 hPa West 26.9 km/h 26.9 km/h 70 % 0 mm 42.0 W/m2 FEW
08:12 -9.8 °C -12.8 °C 34635.4 hPa West 29.8 km/h 29.8 km/h 70 % 0 mm 47.0 W/m2 FEW
08:17 -9.8 °C -12.8 °C 34645.6 hPa WSW 23.8 km/h 23.8 km/h 70 % 0 mm 144.0 W/m2 SCT
08:22 -9.7 °C -12.8 °C 34645.6 hPa WNW 29.8 km/h 29.8 km/h 69 % 0 mm 144.0 W/m2 FEW
08:27 -9.6 °C -12.7 °C 34645.6 hPa West 38.8 km/h 38.8 km/h 69 % 0 mm 109.0 W/m2 FEW
08:32 -9.6 °C -12.8 °C 34645.6 hPa West 29.8 km/h 29.8 km/h 68 % 0 mm 120.0 W/m2 CLR
08:37 -9.5 °C -12.7 °C 34645.6 hPa West 38.8 km/h 38.8 km/h 68 % 0 mm 130.0 W/m2 CLR
08:42 -9.4 °C -12.8 °C 34645.6 hPa WNW 53.6 km/h 53.6 km/h 67 % 0 mm 156.0 W/m2 CLR
08:47 -9.3 °C -12.7 °C 34645.6 hPa West 35.7 km/h 35.7 km/h 67 % 0 mm 83.0 W/m2 CLR
08:52 -9.3 °C -12.7 °C 34645.6 hPa West 35.7 km/h 35.7 km/h 67 % 0 mm 84.0 W/m2 CLR
08:57 -9.2 °C -12.6 °C 34645.6 hPa West 41.7 km/h 41.7 km/h 67 % 0 mm 301.0 W/m2 CLR
09:02 -9.2 °C -12.6 °C 34645.6 hPa West 50.7 km/h 50.7 km/h 67 % 0 mm 302.0 W/m2 CLR
09:07 -9.1 °C -12.4 °C 34645.6 hPa WNW 20.9 km/h 23.5 km/h 67 % 0 mm 327.0 W/m2 CLR
09:12 -8.9 °C -12.4 °C 34645.6 hPa West 47.6 km/h 47.6 km/h 66 % 0 mm 329.0 W/m2 CLR
09:17 -8.8 °C -12.5 °C 34645.6 hPa WNW 47.6 km/h 47.6 km/h 65 % 0 mm 343.0 W/m2 CLR
09:23 -8.8 °C -12.4 °C 34645.6 hPa West 32.8 km/h 32.8 km/h 65 % 0 mm 353.0 W/m2 CLR
09:28 -8.7 °C -12.4 °C 34645.6 hPa WNW 35.7 km/h 35.7 km/h 64 % 0 mm 410.0 W/m2 CLR
09:33 -8.7 °C -12.3 °C 34645.6 hPa WNW 62.1 km/h 62.1 km/h 65 % 0 mm 211.0 W/m2 CLR
09:38 -8.5 °C -12.3 °C 34645.6 hPa WNW 49.2 km/h 49.2 km/h 64 % 0 mm 190.0 W/m2 CLR
09:43 -8.5 °C -12.3 °C 34645.6 hPa NW 47.6 km/h 47.6 km/h 64 % 0 mm 445.0 W/m2 CLR
09:48 -8.4 °C -12.4 °C 34645.6 hPa NW 56.6 km/h 56.6 km/h 63 % 0 mm 471.0 W/m2 CLR
09:53 -8.3 °C -12.2 °C 34645.6 hPa WNW 62.6 km/h 62.6 km/h 63 % 0 mm 499.0 W/m2 CLR
09:58 -8.2 °C -12.2 °C 34645.6 hPa NW 46.7 km/h 46.7 km/h 63 % 0 mm 492.0 W/m2 CLR
10:03 -8.1 °C -12.2 °C 34645.6 hPa WNW 35.7 km/h 35.7 km/h 62 % 0 mm 559.0 W/m2 CLR
10:08 -7.9 °C -12.1 °C 34645.6 hPa NW 38.8 km/h 38.8 km/h 62 % 0 mm 612.0 W/m2 CLR
10:13 -7.9 °C -12.3 °C 34645.6 hPa WNW 41.7 km/h 41.7 km/h 60 % 0 mm 635.0 W/m2 CLR
10:18 -7.9 °C -12.3 °C 34645.6 hPa WNW 53.6 km/h 53.6 km/h 60 % 0 mm 680.0 W/m2 CLR
10:23 -7.9 °C -12.2 °C 34645.6 hPa NNW 35.7 km/h 35.7 km/h 61 % 0 mm 615.0 W/m2 CLR
10:28 -7.8 °C -12.2 °C 34645.6 hPa West 57 km/h 57 km/h 60 % 0 mm 686.0 W/m2 CLR
10:33 -7.6 °C -12.3 °C 34645.6 hPa WNW 46.7 km/h 46.7 km/h 58 % 0 mm 701.0 W/m2 CLR
10:38 -7.6 °C -12.2 °C 34645.6 hPa NW 50.7 km/h 50.7 km/h 58 % 0 mm 714.0 W/m2 CLR
10:43 -7.4 °C -12.2 °C 34645.6 hPa NNW 47.6 km/h 47.6 km/h 57 % 0 mm 763.0 W/m2 CLR
10:48 -7.4 °C -12.3 °C 34645.6 hPa NW 49.2 km/h 49.2 km/h 57 % 0 mm 682.0 W/m2 CLR
10:53 -7.3 °C -12.3 °C 34645.6 hPa NW 54.4 km/h 54.4 km/h 56 % 0 mm 703.0 W/m2 CLR
10:58 -7.3 °C -12.3 °C 34645.6 hPa NNW 49.2 km/h 49.2 km/h 56 % 0 mm 763.0 W/m2 CLR
11:03 -7.3 °C -12.3 °C 34645.6 hPa NW 51.8 km/h 51.8 km/h 56 % 0 mm 151.0 W/m2 CLR
11:08 -7.4 °C -12.2 °C 34645.6 hPa NNW 50.7 km/h 50.7 km/h 57 % 0 mm 729.0 W/m2 CLR
11:13 -7.1 °C -12.1 °C 34645.6 hPa NW 44.7 km/h 44.7 km/h 56 % 0 mm 826.0 W/m2 CLR
11:18 -6.9 °C -12.1 °C 34645.6 hPa NW 47.6 km/h 47.6 km/h 55 % 0 mm 779.0 W/m2 CLR
11:23 -6.9 °C -12.2 °C 34635.4 hPa WNW 47.6 km/h 47.6 km/h 54 % 0 mm 846.0 W/m2 CLR
11:28 -7.1 °C -12.3 °C 34635.4 hPa NW 47.6 km/h 47.6 km/h 54 % 0 mm 155.0 W/m2 CLR
11:33 -7.1 °C -12.4 °C 34635.4 hPa NW 62.1 km/h 62.1 km/h 54 % 0 mm 798.0 W/m2 CLR
11:38 -6.8 °C -12.3 °C 34635.4 hPa NW 50.7 km/h 50.7 km/h 53 % 0 mm 798.0 W/m2 CLR
11:43 -6.8 °C -12.3 °C 34635.4 hPa NW 53.6 km/h 53.6 km/h 53 % 0 mm 810.0 W/m2 CLR
11:48 -6.8 °C -12.4 °C 34635.4 hPa NW 62.6 km/h 62.6 km/h 52 % 0 mm 211.0 W/m2 CLR
11:53 -6.9 °C -12.3 °C 34625.2 hPa WNW 47.6 km/h 47.6 km/h 53 % 0 mm 905.0 W/m2 CLR
11:58 -6.8 °C -12.6 °C 34635.4 hPa North 41.7 km/h 41.7 km/h 51 % 0 mm 954.0 W/m2 CLR
12:03 -6.6 °C -12.3 °C 34625.2 hPa NNW 57 km/h 57 km/h 51 % 0 mm 889.0 W/m2 CLR
12:08 -6.4 °C -12.4 °C 34625.2 hPa WNW 56.6 km/h 56.6 km/h 50 % 0 mm 824.0 W/m2 CLR
12:13 -6.2 °C -12.4 °C 34625.2 hPa NW 44.7 km/h 44.7 km/h 49 % 0 mm 916.0 W/m2 CLR
12:18 -6.2 °C -12.4 °C 34625.2 hPa NW 50.7 km/h 50.7 km/h 49 % 0 mm 879.0 W/m2 CLR
12:23 -6.3 °C -12.4 °C 34625.2 hPa NNW 68.6 km/h 68.6 km/h 49 % 0 mm 830.0 W/m2 CLR
12:28 -6.3 °C -12.3 °C 34625.2 hPa NW 46.7 km/h 46.7 km/h 50 % 0 mm 840.0 W/m2 CLR
12:33 -6.3 °C -12.6 °C 34635.4 hPa NNW 71.5 km/h 71.5 km/h 48 % 0 mm 840.0 W/m2 CLR
12:38 -6.2 °C -12.6 °C 34625.2 hPa NW 56.6 km/h 56.6 km/h 48 % 0 mm 865.0 W/m2 CLR
12:43 -6.2 °C -12.4 °C 34625.2 hPa NW 38.8 km/h 38.8 km/h 49 % 0 mm 893.0 W/m2 CLR
12:48 -5.9 °C -12.5 °C 34625.2 hPa NNW 62.6 km/h 62.6 km/h 47 % 0 mm 867.0 W/m2 CLR
12:53 -5.9 °C -12.4 °C 34611.7 hPa NNW 50.7 km/h 50.7 km/h 47 % 0 mm 867.0 W/m2 CLR
12:58 -5.8 °C -12.3 °C 34611.7 hPa WNW 50.7 km/h 50.7 km/h 47 % 0 mm 872.0 W/m2 CLR
13:03 -5.8 °C -12.4 °C 34611.7 hPa NW 68.6 km/h 68.6 km/h 47 % 0 mm 886.0 W/m2 CLR
13:08 -5.9 °C -12.3 °C 34611.7 hPa NNW 57 km/h 57 km/h 48 % 0 mm 877.0 W/m2 CLR
13:13 -5.8 °C -12.2 °C 34611.7 hPa NNW 50.7 km/h 50.7 km/h 48 % 0 mm 933.0 W/m2 CLR
13:18 -5.7 °C -12.4 °C 34625.2 hPa NNW 59.5 km/h 59.5 km/h 46 % 0 mm 954.0 W/m2 CLR
13:23 -5.6 °C -12.6 °C 34611.7 hPa NW 65.5 km/h 65.5 km/h 45 % 0 mm 933.0 W/m2 CLR
13:28 -5.6 °C -12.1 °C 34611.7 hPa NW 53.6 km/h 53.6 km/h 47 % 0 mm 960.0 W/m2 CLR
13:33 -5.4 °C -12.4 °C 34611.7 hPa WNW 56.6 km/h 56.6 km/h 45 % 0 mm 979.0 W/m2 CLR
13:38 -5.4 °C -12.4 °C 34601.5 hPa West 46.7 km/h 46.7 km/h 45 % 0 mm 1041.0 W/m2 CLR
13:43 -5.4 °C -12.4 °C 34611.7 hPa WNW 47.6 km/h 47.6 km/h 45 % 0 mm 951.0 W/m2 CLR
13:48 -5.3 °C -12.3 °C 34601.5 hPa NNW 38.8 km/h 38.8 km/h 45 % 0 mm 1046.0 W/m2 CLR
13:53 -5.1 °C -12.3 °C 34601.5 hPa WNW 35.7 km/h 35.7 km/h 44 % 0 mm 930.0 W/m2 CLR
13:58 -5.2 °C -12.3 °C 34601.5 hPa NW 38.8 km/h 38.8 km/h 44 % 0 mm 925.0 W/m2 CLR
14:03 -5.1 °C -12.4 °C 34601.5 hPa NW 59.5 km/h 59.5 km/h 43 % 0 mm 911.0 W/m2 CLR
14:08 -5.2 °C -12.4 °C 34601.5 hPa WNW 35.7 km/h 35.7 km/h 44 % 0 mm 905.0 W/m2 CLR
14:13 -4.9 °C -12.3 °C 34601.5 hPa WNW 44.7 km/h 44.7 km/h 43 % 0 mm 960.0 W/m2 CLR
14:18 -4.9 °C -12.3 °C 34601.5 hPa NW 65.5 km/h 65.5 km/h 43 % 0 mm 909.0 W/m2 CLR
14:19 -4.9 °C -12.3 °C 34601.5 hPa NW 65.5 km/h 65.5 km/h 43 % 0 mm 909.0 W/m2 CLR
14:24 -4.9 °C -12.3 °C 34601.5 hPa WNW 62.6 km/h 62.6 km/h 43 % 0 mm 928.0 W/m2 CLR
14:29 -4.9 °C -12.4 °C 34601.5 hPa NW 59.5 km/h 59.5 km/h 42 % 0 mm 949.0 W/m2 CLR
14:34 -4.8 °C -12.4 °C 34601.5 hPa NNW 68.6 km/h 68.6 km/h 42 % 0 mm 984.0 W/m2 CLR
14:39 -4.8 °C -12.1 °C 34601.5 hPa WNW 38.8 km/h 38.8 km/h 43 % 0 mm 998.0 W/m2 CLR
14:44 -4.5 °C -12.3 °C 34591.4 hPa NNW 35.7 km/h 35.7 km/h 41 % 0 mm 956.0 W/m2 CLR
14:49 -4.4 °C -12.4 °C 34591.4 hPa NW 50.7 km/h 50.7 km/h 40 % 0 mm 1034.0 W/m2 CLR
14:54 -4.3 °C -12.1 °C 34591.4 hPa NNW 59.5 km/h 59.5 km/h 41 % 0 mm 1104.0 W/m2 CLR
14:59 -4.4 °C -12.4 °C 34591.4 hPa WNW 50.7 km/h 50.7 km/h 40 % 0 mm 1002.0 W/m2 CLR
15:04 -4.7 °C -12.4 °C 34591.4 hPa NNW 62.6 km/h 62.6 km/h 41 % 0 mm 889.0 W/m2 CLR
15:09 -4.7 °C -12.4 °C 34591.4 hPa NW 35.7 km/h 35.7 km/h 41 % 0 mm 891.0 W/m2 CLR
15:14 -4.6 °C -12.4 °C 34591.4 hPa NW 53.6 km/h 53.6 km/h 41 % 0 mm 877.0 W/m2 CLR
15:19 -4.3 °C -12.4 °C 34591.4 hPa NNW 44.7 km/h 44.7 km/h 40 % 0 mm 872.0 W/m2 CLR
15:24 -4.3 °C -12.4 °C 34591.4 hPa NNW 44.7 km/h 44.7 km/h 40 % 0 mm 865.0 W/m2 CLR
15:29 -4.3 °C -12.4 °C 34591.4 hPa NW 32.8 km/h 32.8 km/h 40 % 0 mm 884.0 W/m2 CLR
15:34 -4.1 °C -12.2 °C 34591.4 hPa NW 54.4 km/h 54.4 km/h 40 % 0 mm 882.0 W/m2 CLR
15:39 -4.1 °C -12.4 °C 34591.4 hPa NNW 53.6 km/h 53.6 km/h 39 % 0 mm 856.0 W/m2 CLR
15:44 -4.1 °C -12.2 °C 34591.4 hPa WNW 72.6 km/h 72.6 km/h 40 % 0 mm 844.0 W/m2 CLR
15:49 -4.2 °C -12.1 °C 34591.4 hPa NW 56.6 km/h 56.6 km/h 41 % 0 mm 831.0 W/m2 CLR
15:54 -4.3 °C -12.2 °C 34591.4 hPa NNW 68.6 km/h 68.6 km/h 41 % 0 mm 830.0 W/m2 CLR
15:59 -4.4 °C -12.2 °C 34591.4 hPa NNW 41.4 km/h 41.4 km/h 41 % 0 mm 814.0 W/m2 CLR
16:04 -4.3 °C -12.3 °C 34591.4 hPa NW 59.5 km/h 59.5 km/h 40 % 0 mm 802.0 W/m2 CLR
16:09 -4.3 °C -12.2 °C 34577.8 hPa WNW 47.6 km/h 47.6 km/h 41 % 0 mm 807.0 W/m2 CLR
16:14 -4.4 °C -12.2 °C 34577.8 hPa NW 62.6 km/h 62.6 km/h 41 % 0 mm 788.0 W/m2 CLR
16:19 -4.3 °C -12.2 °C 34577.8 hPa North 50.7 km/h 50.7 km/h 41 % 0 mm 775.0 W/m2 CLR
16:24 -4.1 °C -12.2 °C 34577.8 hPa NNW 59.5 km/h 59.5 km/h 40 % 0 mm 761.0 W/m2 CLR
16:29 -4.1 °C -12.2 °C 34577.8 hPa NNW 71.5 km/h 71.5 km/h 40 % 0 mm 765.0 W/m2 CLR
16:34 -4.3 °C -11.9 °C 34577.8 hPa NNW 62.6 km/h 62.6 km/h 42 % 0 mm 733.0 W/m2 CLR
16:39 -4.3 °C -12.1 °C 34577.8 hPa WNW 50.7 km/h 50.7 km/h 41 % 0 mm 744.0 W/m2 CLR
16:44 -4.2 °C -12.1 °C 34577.8 hPa WNW 50.7 km/h 50.7 km/h 41 % 0 mm 710.0 W/m2 CLR
16:49 -4.3 °C -12.1 °C 34577.8 hPa NNW 53.6 km/h 53.6 km/h 41 % 0 mm 717.0 W/m2 CLR
16:54 -4.3 °C -12 °C 34577.8 hPa WNW 59.5 km/h 59.5 km/h 42 % 0 mm 703.0 W/m2 CLR
16:59 -4.3 °C -12.2 °C 34577.8 hPa NNW 50.7 km/h 50.7 km/h 41 % 0 mm 682.0 W/m2 CLR
17:04 -4.2 °C -12.1 °C 34577.8 hPa WNW 51.8 km/h 51.8 km/h 41 % 0 mm 666.0 W/m2 CLR
17:09 -4.2 °C -12.2 °C 34567.7 hPa WNW 59.5 km/h 59.5 km/h 40 % 0 mm 656.0 W/m2 CLR
17:14 -4.3 °C -12.1 °C 34567.7 hPa NW 65.5 km/h 65.5 km/h 41 % 0 mm 636.0 W/m2 CLR
17:19 -4.2 °C -12.3 °C 34567.7 hPa North 47.6 km/h 47.6 km/h 40 % 0 mm 624.0 W/m2 CLR
17:24 -4.2 °C -12 °C 34567.7 hPa NNW 74.5 km/h 74.5 km/h 41 % 0 mm 613.0 W/m2 CLR
17:29 -4.3 °C -12.2 °C 34567.7 hPa NW 65.5 km/h 65.5 km/h 41 % 0 mm 598.0 W/m2 CLR
17:34 -4.4 °C -12 °C 34567.7 hPa NW 59.5 km/h 59.5 km/h 42 % 0 mm 584.0 W/m2 CLR
17:39 -4.3 °C -11.9 °C 34567.7 hPa NNW 50.7 km/h 50.7 km/h 42 % 0 mm 568.0 W/m2 CLR
17:44 -4.2 °C -11.8 °C 34567.7 hPa NNW 56.6 km/h 56.6 km/h 42 % 0 mm 554.0 W/m2 CLR
17:49 -4.3 °C -11.9 °C 34577.8 hPa NW 56.6 km/h 56.6 km/h 42 % 0 mm 538.0 W/m2 CLR
17:54 -4.4 °C -12.1 °C 34577.8 hPa NW 65.5 km/h 65.5 km/h 42 % 0 mm 526.0 W/m2 CLR
17:59 -4.4 °C -12 °C 34567.7 hPa WNW 47.6 km/h 47.6 km/h 42 % 0 mm 508.0 W/m2 CLR
18:04 -4.3 °C -12 °C 34577.8 hPa NNW 65.5 km/h 65.5 km/h 42 % 0 mm 497.0 W/m2 CLR
18:05 -4.4 °C -12 °C 34577.8 hPa North 65.5 km/h 65.5 km/h 42 % 0 mm 494.0 W/m2 CLR
18:10 -4.4 °C -12.3 °C 34567.7 hPa North 74.5 km/h 74.5 km/h 41 % 0 mm 478.0 W/m2 CLR
18:15 -4.6 °C -12.1 °C 34567.7 hPa NW 50.7 km/h 50.7 km/h 42 % 0 mm 464.0 W/m2 CLR
18:20 -4.5 °C -12.1 °C 34567.7 hPa NW 50.7 km/h 50.7 km/h 42 % 0 mm 450.0 W/m2 CLR
18:25 -4.4 °C -12.3 °C 34567.7 hPa NW 59.5 km/h 59.5 km/h 41 % 0 mm 429.0 W/m2 CLR
18:30 -4.4 °C -12 °C 34567.7 hPa NNW 50.7 km/h 50.7 km/h 42 % 0 mm 410.0 W/m2 CLR
18:35 -4.5 °C -12.1 °C 34567.7 hPa North 54.4 km/h 54.4 km/h 42 % 0 mm 401.0 W/m2 CLR
18:40 -4.5 °C -12.1 °C 34567.7 hPa NW 68.6 km/h 68.6 km/h 42 % 0 mm 385.0 W/m2 CLR
18:45 -4.6 °C -12.1 °C 34567.7 hPa NNW 56.6 km/h 56.6 km/h 42 % 0 mm 362.0 W/m2 CLR
18:50 -4.6 °C -12.1 °C 34567.7 hPa WNW 50.7 km/h 50.7 km/h 42 % 0 mm 352.0 W/m2 CLR
18:55 -4.6 °C -12.1 °C 34554.1 hPa WNW 50.7 km/h 50.7 km/h 42 % 0 mm 336.0 W/m2 CLR
19:00 -4.6 °C -12.2 °C 34567.7 hPa NW 71.5 km/h 71.5 km/h 42 % 0 mm 318.0 W/m2 CLR
19:01 -4.6 °C -12.2 °C 34554.1 hPa NW 68.6 km/h 68.6 km/h 42 % 0 mm 316.0 W/m2 CLR
19:06 -4.6 °C -12.2 °C 34567.7 hPa NNW 54.4 km/h 54.4 km/h 42 % 0 mm 299.0 W/m2 CLR
19:11 -4.6 °C -12.2 °C 34567.7 hPa NW 51.8 km/h 51.8 km/h 42 % 0 mm 281.0 W/m2 CLR
19:16 -4.8 °C -12.2 °C 34567.7 hPa NNW 65.5 km/h 65.5 km/h 43 % 0 mm 51.0 W/m2 CLR
19:21 -4.8 °C -12 °C 34567.7 hPa WNW 59.5 km/h 59.5 km/h 44 % 0 mm 257.0 W/m2 CLR
19:26 -4.8 °C -12 °C 34567.7 hPa WNW 62.6 km/h 62.6 km/h 44 % 0 mm 239.0 W/m2 CLR
19:31 -4.9 °C -12.1 °C 34567.7 hPa NW 71.5 km/h 71.5 km/h 44 % 0 mm 216.0 W/m2 CLR
19:36 -4.9 °C -12.1 °C 34567.7 hPa NW 62.6 km/h 62.6 km/h 44 % 0 mm 200.0 W/m2 CLR
19:41 -4.9 °C -12.1 °C 34567.7 hPa WNW 65.5 km/h 65.5 km/h 44 % 0 mm 181.0 W/m2 CLR
19:46 -4.9 °C -12.1 °C 34577.8 hPa NNW 56.6 km/h 56.6 km/h 44 % 0 mm 163.0 W/m2 CLR
19:51 -5.1 °C -12 °C 34567.7 hPa NW 38.8 km/h 38.8 km/h 45 % 0 mm 144.0 W/m2 CLR
19:56 -5.1 °C -12.1 °C 34577.8 hPa NW 65.5 km/h 65.5 km/h 45 % 0 mm 127.0 W/m2 CLR
20:01 -5.2 °C -11.9 °C 34577.8 hPa NW 50.7 km/h 50.7 km/h 46 % 0 mm 111.0 W/m2 CLR
20:06 -5.2 °C -12.2 °C 34577.8 hPa NNW 64.7 km/h 64.7 km/h 45 % 0 mm 97.0 W/m2 CLR
20:11 -5.3 °C -12.3 °C 34577.8 hPa NW 44.7 km/h 44.7 km/h 45 % 0 mm 83.0 W/m2 FEW
20:16 -5.4 °C -12.3 °C 34577.8 hPa NW 53.6 km/h 53.6 km/h 45 % 0 mm 67.0 W/m2 FEW
20:21 -5.4 °C -12.2 °C 34577.8 hPa NNW 56.6 km/h 56.6 km/h 46 % 0 mm 54.0 W/m2 SCT
20:26 -5.4 °C -12.1 °C 34577.8 hPa WNW 44.7 km/h 44.7 km/h 47 % 0 mm 39.0 W/m2 BKN
20:31 -5.6 °C -12 °C 34577.8 hPa WNW 56.6 km/h 56.6 km/h 48 % 0 mm 30.0 W/m2 BKN
20:36 -5.7 °C -12.1 °C 34591.4 hPa NW 38.8 km/h 38.8 km/h 48 % 0 mm 21.0 W/m2 BKN
20:41 -5.8 °C -12.2 °C 34591.4 hPa NNW 59.5 km/h 59.5 km/h 48 % 0 mm 14.0 W/m2 BKN
20:46 -5.9 °C -12.1 °C 34591.4 hPa NW 50.7 km/h 50.7 km/h 49 % 0 mm 12.0 W/m2 BKN
20:51 -6.1 °C -12.2 °C 34591.4 hPa WNW 44.7 km/h 44.7 km/h 49 % 0 mm 11.0 W/m2 BKN
20:56 -6.2 °C -12.2 °C 34591.4 hPa NW 50.7 km/h 50.7 km/h 50 % 0 mm 7.0 W/m2 BKN
21:01 -6.3 °C -12.1 °C 34591.4 hPa NW 47.6 km/h 47.6 km/h 51 % 0 mm 5.0 W/m2 OVC
21:06 -6.3 °C -12.2 °C 34591.4 hPa NW 31.1 km/h 31.1 km/h 51 % 0 mm 0.0 W/m2 OVC
21:11 -6.4 °C -12.2 °C 34591.4 hPa NW 47.6 km/h 47.6 km/h 51 % 0 mm 0.0 W/m2 OVC
21:16 -6.4 °C -12.3 °C 34591.4 hPa NNW 62.6 km/h 62.6 km/h 51 % 0 mm 0.0 W/m2 CLR
21:18 -6.4 °C -12.3 °C 34591.4 hPa NW 80.3 km/h 80.3 km/h 51 % 0 mm 0.0 W/m2 CLR
21:23 -6.5 °C -12.2 °C 34601.5 hPa WNW 64.7 km/h 64.7 km/h 52 % 0 mm 0.0 W/m2 CLR
21:28 -6.6 °C -12.1 °C 34601.5 hPa WNW 50.7 km/h 50.7 km/h 53 % 0 mm 0.0 W/m2 CLR
21:33 -6.7 °C -12.2 °C 34601.5 hPa NW 68.6 km/h 68.6 km/h 53 % 0 mm 0.0 W/m2 CLR
21:38 -6.8 °C -12.1 °C 34601.5 hPa WNW 35.7 km/h 35.7 km/h 54 % 0 mm 0.0 W/m2 CLR
21:43 -6.8 °C -12 °C 34611.7 hPa WNW 50.7 km/h 50.7 km/h 55 % 0 mm 0.0 W/m2 CLR
21:48 -6.9 °C -12.1 °C 34611.7 hPa WNW 50.7 km/h 50.7 km/h 55 % 0 mm 0.0 W/m2 CLR
21:53 -6.9 °C -12.1 °C 34611.7 hPa WNW 59.5 km/h 59.5 km/h 55 % 0 mm 0.0 W/m2 CLR
21:58 -7 °C -12.1 °C 34625.2 hPa WNW 56.6 km/h 56.6 km/h 55 % 0 mm 0.0 W/m2 CLR
22:03 -7 °C -12.2 °C 34625.2 hPa WNW 50.7 km/h 50.7 km/h 55 % 0 mm 0.0 W/m2 CLR
22:08 -7.1 °C -12.2 °C 34625.2 hPa NW 68.6 km/h 68.6 km/h 55 % 0 mm 0.0 W/m2 CLR
22:13 -7.2 °C -12.3 °C 34625.2 hPa West 44.1 km/h 44.1 km/h 55 % 0 mm 0.0 W/m2 CLR
22:18 -7.2 °C -12.3 °C 34635.4 hPa WNW 44.7 km/h 44.7 km/h 55 % 0 mm 0.0 W/m2 CLR
22:23 -7.3 °C -12.4 °C 34635.4 hPa WNW 44.7 km/h 44.7 km/h 55 % 0 mm 0.0 W/m2 CLR
22:28 -7.3 °C -12.4 °C 34635.4 hPa WNW 47.6 km/h 47.6 km/h 55 % 0 mm 0.0 W/m2 CLR
22:33 -7.3 °C -12.4 °C 34635.4 hPa WNW 53.6 km/h 53.6 km/h 55 % 0 mm 0.0 W/m2 CLR
22:38 -7.4 °C -12.5 °C 34645.6 hPa NW 47.6 km/h 47.6 km/h 55 % 0 mm 0.0 W/m2 CLR
22:43 -7.4 °C -12.6 °C 34645.6 hPa NW 41.7 km/h 41.7 km/h 55 % 0 mm 0.0 W/m2 CLR
22:48 -7.4 °C -12.4 °C 34645.6 hPa West 41.7 km/h 41.7 km/h 56 % 0 mm 0.0 W/m2 CLR
22:53 -7.5 °C -12.4 °C 34645.6 hPa WNW 38.8 km/h 38.8 km/h 56 % 0 mm 0.0 W/m2 CLR
22:58 -7.6 °C -12.5 °C 34645.6 hPa WNW 33.6 km/h 33.6 km/h 56 % 0 mm 0.0 W/m2 CLR
23:03 -7.6 °C -12.4 °C 34645.6 hPa WNW 47.6 km/h 47.6 km/h 57 % 0 mm 0.0 W/m2 CLR
23:08 -7.6 °C -12.4 °C 34645.6 hPa WNW 41.7 km/h 41.7 km/h 57 % 0 mm 0.0 W/m2 CLR
23:13 -7.7 °C -12.4 °C 34659.1 hPa WNW 41.7 km/h 41.7 km/h 57 % 0 mm 0.0 W/m2 CLR
23:18 -7.7 °C -12.3 °C 34645.6 hPa WNW 38.8 km/h 38.8 km/h 58 % 0 mm 0.0 W/m2 CLR
23:23 -7.7 °C -12.4 °C 34645.6 hPa WNW 41.7 km/h 41.7 km/h 58 % 0 mm 0.0 W/m2 CLR
23:28 -7.7 °C -12.4 °C 34659.1 hPa WSW 50.7 km/h 50.7 km/h 58 % 0 mm 0.0 W/m2 CLR
23:33 -7.8 °C -12.4 °C 34659.1 hPa WNW 35.7 km/h 35.7 km/h 58 % 0 mm 0.0 W/m2 CLR
23:38 -7.8 °C -12.3 °C 34659.1 hPa WSW 23.8 km/h 23.8 km/h 59 % 0 mm 0.0 W/m2 CLR
23:43 -7.9 °C -12.6 °C 34659.1 hPa West 33.6 km/h 33.6 km/h 58 % 0 mm 0.0 W/m2 CLR
23:48 -7.9 °C -12.6 °C 34659.1 hPa West 35.7 km/h 35.7 km/h 58 % 0 mm 0.0 W/m2 CLR
23:53 -7.9 °C -12.4 °C 34659.1 hPa West 35.7 km/h 35.7 km/h 59 % 0 mm 0.0 W/m2 CLR
23:58 -7.9 °C -12.4 °C 34659.1 hPa WNW 38.8 km/h 38.8 km/h 59 % 0 mm 0.0 W/m2 CLR
Lo Temps de Massalio
Compliments of Weather Underground - 1.25 mb